Time;durP1;ratioP1;P1;durP2;ratioP2;P2;SDS_P1;SDS_P2;PMS_P1;PMS_P2;Temp;Humidity;BMP_temperature;BMP_pressure;BME280_temperature;BME280_humidity;BME280_pressure;Samples;Min_cycle;Max_cycle;Signal;HPM_P1;HPM_P2
2023/08/23 00:00:45;;;;;;;;;;;;;;;;;;5011985;28;19921;-18
2023/08/23 00:03:11;;;;;;;;;;;;;;;;;;5011647;28;19910;-17
2023/08/23 00:05:37;;;;;;;;;;;;;;;;;;5010561;28;19974;-19
2023/08/23 00:08:03;;;;;;;;;;;;;;;;;;5012066;28;20245;-18
2023/08/23 00:10:29;;;;;;;;;;;;;;;;;;5012113;28;19910;-19
2023/08/23 00:12:56;;;;;;;;;;;;;;;;;;5011708;28;19910;-18
2023/08/23 00:15:22;;;;;;;;;;;;;;;;;;5012016;28;19910;-17
2023/08/23 00:17:48;;;;;;;;;;;;;;;;;;5011496;28;19920;-19
2023/08/23 00:20:14;;;;;;;;;;;;;;;;;;5011470;28;19917;-18
2023/08/23 00:22:40;;;;;;;;;;;;;;;;;;5011520;28;19966;-19
2023/08/23 00:25:06;;;;;;;;;;;;;;;;;;5011073;28;19948;-19
2023/08/23 00:27:32;;;;;;;;;;;;;;;;;;5011338;28;20024;-18
2023/08/23 00:29:57;;;;;;;;;;;;;;;;;;5011256;28;19932;-18
2023/08/23 00:32:23;;;;;;;;;;;;;;;;;;5012727;28;19909;-19
2023/08/23 00:34:49;;;;;;;;;;;;;;;;;;5014663;28;20025;-17
2023/08/23 00:37:15;;;;;;;;;;;;;;;;;;5014633;28;19909;-18
2023/08/23 00:39:41;;;;;;;;;;;;;;;;;;5014835;28;19919;-18
2023/08/23 00:42:07;;;;;;;;;;;;;;;;;;5014437;28;19970;-18
2023/08/23 00:44:33;;;;;;;;;;;;;;;;;;5014745;28;19924;-20
2023/08/23 00:46:59;;;;;;;;;;;;;;;;;;5014525;28;20000;-19
2023/08/23 00:49:25;;;;;;;;;;;;;;;;;;5014525;28;19910;-19
2023/08/23 00:51:51;;;;;;;;;;;;;;;;;;5014541;28;19909;-19
2023/08/23 00:54:17;;;;;;;;;;;;;;;;;;5014277;28;20000;-18
2023/08/23 00:56:43;;;;;;;;;;;;;;;;;;5014321;28;19971;-17
2023/08/23 00:59:09;;;;;;;;;;;;;;;;;;5014559;28;19920;-19
2023/08/23 01:01:35;;;;;;;;;;;;;;;;;;5014272;28;19948;-16
2023/08/23 01:04:01;;;;;;;;;;;;;;;;;;5014180;28;19909;-18
2023/08/23 01:06:27;;;;;;;;;;;;;;;;;;5014171;28;19913;-18
2023/08/23 01:08:53;;;;;;;;;;;;;;;;;;5014106;28;19963;-18
2023/08/23 01:11:19;;;;;;;;;;;;;;;;;;5014088;28;19921;-20
2023/08/23 01:13:45;;;;;;;;;;;;;;;;;;5014007;28;19910;-18
2023/08/23 01:16:11;;;;;;;;;;;;;;;;;;5014242;28;19920;-18
2023/08/23 01:18:37;;;;;;;;;;;;;;;;;;5013996;28;19939;-17
2023/08/23 01:21:03;;;;;;;;;;;;;;;;;;5013984;28;20340;-19
2023/08/23 01:23:29;;;;;;;;;;;;;;;;;;5014144;28;19970;-18
2023/08/23 01:25:55;;;;;;;;;;;;;;;;;;5013690;28;20332;-18
2023/08/23 01:28:21;;;;;;;;;;;;;;;;;;5014355;28;20347;-18
2023/08/23 01:30:47;;;;;;;;;;;;;;;;;;5013821;28;20336;-19
2023/08/23 01:33:13;;;;;;;;;;;;;;;;;;5013734;28;19962;-21
2023/08/23 01:35:39;;;;;;;;;;;;;;;;;;5014010;28;19909;-18
2023/08/23 01:38:05;;;;;;;;;;;;;;;;;;5013734;28;19931;-19
2023/08/23 01:40:31;;;;;;;;;;;;;;;;;;5013913;28;19958;-19
2023/08/23 01:42:57;;;;;;;;;;;;;;;;;;5013552;28;19963;-19
2023/08/23 01:45:23;;;;;;;;;;;;;;;;;;5013756;28;19925;-18
2023/08/23 01:47:49;;;;;;;;;;;;;;;;;;5013802;28;20004;-18
2023/08/23 01:50:15;;;;;;;;;;;;;;;;;;5013398;28;19909;-19
2023/08/23 01:52:41;;;;;;;;;;;;;;;;;;5013465;28;19910;-19
2023/08/23 01:55:07;;;;;;;;;;;;;;;;;;5013723;28;19910;-19
2023/08/23 01:57:33;;;;;;;;;;;;;;;;;;5013356;28;19917;-18
2023/08/23 01:59:59;;;;;;;;;;;;;;;;;;5013669;28;19910;-18
2023/08/23 02:02:25;;;;;;;;;;;;;;;;;;5013291;28;19921;-18
2023/08/23 02:04:51;;;;;;;;;;;;;;;;;;5013234;28;20294;-19
2023/08/23 02:07:17;;;;;;;;;;;;;;;;;;5013224;28;19909;-20
2023/08/23 02:09:43;;;;;;;;;;;;;;;;;;5013244;28;19978;-19
2023/08/23 02:12:09;;;;;;;;;;;;;;;;;;5013094;28;19948;-20
2023/08/23 02:14:35;;;;;;;;;;;;;;;;;;5013426;28;19910;-18
2023/08/23 02:17:01;;;;;;;;;;;;;;;;;;5013153;28;19955;-19
2023/08/23 02:19:27;;;;;;;;;;;;;;;;;;5013077;28;19961;-19
2023/08/23 02:21:53;;;;;;;;;;;;;;;;;;5013245;28;19914;-20
2023/08/23 02:24:19;;;;;;;;;;;;;;;;;;5012772;28;19922;-19
2023/08/23 02:26:45;;;;;;;;;;;;;;;;;;5012944;28;20009;-19
2023/08/23 02:29:11;;;;;;;;;;;;;;;;;;5013099;28;19928;-19
2023/08/23 02:31:37;;;;;;;;;;;;;;;;;;5012897;28;19909;-18
2023/08/23 02:34:03;;;;;;;;;;;;;;;;;;5012761;28;19939;-19
2023/08/23 02:36:28;;;;;;;;;;;;;;;;;;5012811;28;20021;-20
2023/08/23 02:38:55;;;;;;;;;;;;;;;;;;5012821;28;19909;-19
2023/08/23 02:41:21;;;;;;;;;;;;;;;;;;5012841;28;19917;-19
2023/08/23 02:43:47;;;;;;;;;;;;;;;;;;5012680;28;19910;-19
2023/08/23 02:46:13;;;;;;;;;;;;;;;;;;5013115;28;19918;-19
2023/08/23 02:48:39;;;;;;;;;;;;;;;;;;5012632;28;20003;-20
2023/08/23 02:51:04;;;;;;;;;;;;;;;;;;5012854;28;19916;-20
2023/08/23 02:53:30;;;;;;;;;;;;;;;;;;5012522;28;19959;-19
2023/08/23 02:55:56;;;;;;;;;;;;;;;;;;5011936;28;19909;-19
2023/08/23 02:58:22;;;;;;;;;;;;;;;;;;5012479;28;19909;-19
2023/08/23 03:00:48;;;;;;;;;;;;;;;;;;5012949;28;19917;-17
2023/08/23 03:03:14;;;;;;;;;;;;;;;;;;5012252;28;19910;-19
2023/08/23 03:05:40;;;;;;;;;;;;;;;;;;5012558;28;19925;-19
2023/08/23 03:08:06;;;;;;;;;;;;;;;;;;5012316;28;20298;-20
2023/08/23 03:10:32;;;;;;;;;;;;;;;;;;5013068;28;20214;-18
2023/08/23 03:12:58;;;;;;;;;;;;;;;;;;5012573;28;19971;-19
2023/08/23 03:15:24;;;;;;;;;;;;;;;;;;5012530;28;19979;-18
2023/08/23 03:17:50;;;;;;;;;;;;;;;;;;5012284;28;19948;-19
2023/08/23 03:20:16;;;;;;;;;;;;;;;;;;5012232;28;20008;-19
2023/08/23 03:22:42;;;;;;;;;;;;;;;;;;5012303;28;19910;-20
2023/08/23 03:25:08;;;;;;;;;;;;;;;;;;5012044;28;20412;-18
2023/08/23 03:27:34;;;;;;;;;;;;;;;;;;5012083;28;20222;-19
2023/08/23 03:30:00;;;;;;;;;;;;;;;;;;5012070;28;19920;-18
2023/08/23 03:32:26;;;;;;;;;;;;;;;;;;5012059;28;20348;-19
2023/08/23 03:34:51;;;;;;;;;;;;;;;;;;5011967;28;20267;-19
2023/08/23 03:37:17;;;;;;;;;;;;;;;;;;5011947;28;20259;-18
2023/08/23 03:39:44;;;;;;;;;;;;;;;;;;5012377;28;19910;-19
2023/08/23 03:42:10;;;;;;;;;;;;;;;;;;5011787;28;19918;-20
2023/08/23 03:44:36;;;;;;;;;;;;;;;;;;5011736;28;19913;-20
2023/08/23 03:47:02;;;;;;;;;;;;;;;;;;5012035;28;19916;-19
2023/08/23 03:49:28;;;;;;;;;;;;;;;;;;5011676;28;19910;-20
2023/08/23 03:51:54;;;;;;;;;;;;;;;;;;5011929;28;19910;-19
2023/08/23 03:54:21;;;;;;;;;;;;;;;;;;5011937;28;19914;-23
2023/08/23 03:56:47;;;;;;;;;;;;;;;;;;5010627;28;20305;-18
2023/08/23 03:59:13;;;;;;;;;;;;;;;;;;5012304;28;20004;-21
2023/08/23 04:01:39;;;;;;;;;;;;;;;;;;5011513;28;19909;-19
2023/08/23 04:04:05;;;;;;;;;;;;;;;;;;5011506;28;19910;-20
2023/08/23 04:06:31;;;;;;;;;;;;;;;;;;5011471;28;19914;-19
2023/08/23 04:08:57;;;;;;;;;;;;;;;;;;5015215;28;19959;-19
2023/08/23 04:11:23;;;;;;;;;;;;;;;;;;5014799;28;19920;-18
2023/08/23 04:13:49;;;;;;;;;;;;;;;;;;5014777;28;19914;-20
2023/08/23 04:16:15;;;;;;;;;;;;;;;;;;5014633;28;19910;-21
2023/08/23 04:18:41;;;;;;;;;;;;;;;;;;5015306;28;19965;-19
2023/08/23 04:21:06;;;;;;;;;;;;;;;;;;5014537;28;19945;-21
2023/08/23 04:23:32;;;;;;;;;;;;;;;;;;5014469;28;19914;-19
2023/08/23 04:25:58;;;;;;;;;;;;;;;;;;5013174;28;19925;-19
2023/08/23 04:28:24;;;;;;;;;;;;;;;;;;5014457;28;19930;-19
2023/08/23 04:30:50;;;;;;;;;;;;;;;;;;5015106;28;20335;-21
2023/08/23 04:33:16;;;;;;;;;;;;;;;;;;5015029;28;19941;-21
2023/08/23 04:35:42;;;;;;;;;;;;;;;;;;5014659;28;19910;-18
2023/08/23 04:38:13;;;;;;;;;;;;;;;;;;5014513;28;19910;-20
2023/08/23 04:40:39;;;;;;;;;;;;;;;;;;5014459;28;19910;-19
2023/08/23 04:43:05;;;;;;;;;;;;;;;;;;5014297;28;19916;-18
2023/08/23 04:45:31;;;;;;;;;;;;;;;;;;5014498;28;19924;-19
2023/08/23 04:47:57;;;;;;;;;;;;;;;;;;5014373;28;19916;-18
2023/08/23 04:50:23;;;;;;;;;;;;;;;;;;5014311;28;19948;-17
2023/08/23 04:52:49;;;;;;;;;;;;;;;;;;5014164;28;19967;-20
2023/08/23 04:55:15;;;;;;;;;;;;;;;;;;5014657;28;19910;-20
2023/08/23 04:57:40;;;;;;;;;;;;;;;;;;5014292;28;20221;-22
2023/08/23 05:00:08;;;;;;;;;;;;;;;;;;5014443;28;19913;-19
2023/08/23 05:02:34;;;;;;;;;;;;;;;;;;5014015;28;19909;-19
2023/08/23 05:05:00;;;;;;;;;;;;;;;;;;5014331;28;20016;-20
2023/08/23 05:07:26;;;;;;;;;;;;;;;;;;5014067;28;20034;-20
2023/08/23 05:09:52;;;;;;;;;;;;;;;;;;5014163;28;19917;-21
2023/08/23 05:12:18;;;;;;;;;;;;;;;;;;5013870;28;19997;-20
2023/08/23 05:14:44;;;;;;;;;;;;;;;;;;5012976;28;19937;-19
2023/08/23 05:17:10;;;;;;;;;;;;;;;;;;5013686;28;19910;-19
2023/08/23 05:19:36;;;;;;;;;;;;;;;;;;5013352;28;19970;-20
2023/08/23 05:22:02;;;;;;;;;;;;;;;;;;5013676;28;19916;-19
2023/08/23 05:24:28;;;;;;;;;;;;;;;;;;5013415;28;19925;-17
2023/08/23 05:26:54;;;;;;;;;;;;;;;;;;5013854;28;19909;-19
2023/08/23 05:29:20;;;;;;;;;;;;;;;;;;5014077;28;19909;-20
2023/08/23 05:31:46;;;;;;;;;;;;;;;;;;5013529;28;19910;-19
2023/08/23 05:34:12;;;;;;;;;;;;;;;;;;5013548;28;19910;-19
2023/08/23 05:36:38;;;;;;;;;;;;;;;;;;5012650;28;20206;-20
2023/08/23 05:39:04;;;;;;;;;;;;;;;;;;5012472;28;20057;-19
2023/08/23 05:41:30;;;;;;;;;;;;;;;;;;5013291;28;19910;-19
2023/08/23 05:43:56;;;;;;;;;;;;;;;;;;5013607;28;19909;-19
2023/08/23 05:46:22;;;;;;;;;;;;;;;;;;5013236;28;19921;-17
2023/08/23 05:48:48;;;;;;;;;;;;;;;;;;5013337;28;20267;-19
2023/08/23 05:51:14;;;;;;;;;;;;;;;;;;5013305;28;19918;-18
2023/08/23 05:53:40;;;;;;;;;;;;;;;;;;5013277;28;19913;-19
2023/08/23 05:56:06;;;;;;;;;;;;;;;;;;5013305;28;19916;-19
2023/08/23 05:58:32;;;;;;;;;;;;;;;;;;5013040;28;19909;-22
2023/08/23 06:00:58;;;;;;;;;;;;;;;;;;5011901;28;19921;-20
2023/08/23 06:03:24;;;;;;;;;;;;;;;;;;5013130;28;19996;-19
2023/08/23 06:05:50;;;;;;;;;;;;;;;;;;5011797;28;19917;-19
2023/08/23 06:08:16;;;;;;;;;;;;;;;;;;5012956;28;20341;-19
2023/08/23 06:10:41;;;;;;;;;;;;;;;;;;5012956;28;19917;-18
2023/08/23 06:13:07;;;;;;;;;;;;;;;;;;5013212;28;20332;-19
2023/08/23 06:15:33;;;;;;;;;;;;;;;;;;5012352;28;19957;-19
2023/08/23 06:17:59;;;;;;;;;;;;;;;;;;5012673;28;19909;-18
2023/08/23 06:20:26;;;;;;;;;;;;;;;;;;5011334;28;19910;-18
2023/08/23 06:22:52;;;;;;;;;;;;;;;;;;5012284;28;19910;-17
2023/08/23 06:25:18;;;;;;;;;;;;;;;;;;5012093;28;19928;-19
2023/08/23 06:27:45;;;;;;;;;;;;;;;;;;5011213;28;19909;-18
2023/08/23 06:30:10;;;;;;;;;;;;;;;;;;5011376;28;20310;-19
2023/08/23 06:32:36;;;;;;;;;;;;;;;;;;5012536;28;19909;-19
2023/08/23 06:35:02;;;;;;;;;;;;;;;;;;5012277;28;19909;-19
2023/08/23 06:37:30;;;;;;;;;;;;;;;;;;5012522;28;19909;-19
2023/08/23 06:39:56;;;;;;;;;;;;;;;;;;5012621;28;19920;-19
2023/08/23 06:42:22;;;;;;;;;;;;;;;;;;5012673;28;20256;-20
2023/08/23 06:44:48;;;;;;;;;;;;;;;;;;5012853;28;20065;-17
2023/08/23 06:47:14;;;;;;;;;;;;;;;;;;5012483;28;19910;-19
2023/08/23 06:49:40;;;;;;;;;;;;;;;;;;5012317;28;19910;-20
2023/08/23 06:52:06;;;;;;;;;;;;;;;;;;5012262;28;20224;-19
2023/08/23 06:54:32;;;;;;;;;;;;;;;;;;5012528;28;19909;-17
2023/08/23 06:56:57;;;;;;;;;;;;;;;;;;5012431;28;20286;-20
2023/08/23 06:59:23;;;;;;;;;;;;;;;;;;5012144;28;20057;-19
2023/08/23 07:01:49;;;;;;;;;;;;;;;;;;5012051;28;19914;-20
2023/08/23 07:04:15;;;;;;;;;;;;;;;;;;5012966;28;19914;-19
2023/08/23 07:06:41;;;;;;;;;;;;;;;;;;5012208;28;19917;-18
2023/08/23 07:09:07;;;;;;;;;;;;;;;;;;5011209;28;19909;-19
2023/08/23 07:11:33;;;;;;;;;;;;;;;;;;5012140;28;19913;-20
2023/08/23 07:13:59;;;;;;;;;;;;;;;;;;5011860;28;19928;-19
2023/08/23 07:16:25;;;;;;;;;;;;;;;;;;5011942;28;19910;-19
2023/08/23 07:18:51;;;;;;;;;;;;;;;;;;5010923;28;19939;-17
2023/08/23 07:21:17;;;;;;;;;;;;;;;;;;5011863;28;19910;-21
2023/08/23 07:23:43;;;;;;;;;;;;;;;;;;5011460;28;19917;-21
2023/08/23 07:26:09;;;;;;;;;;;;;;;;;;5011658;28;19914;-20
2023/08/23 07:28:35;;;;;;;;;;;;;;;;;;5011945;28;19910;-19
2023/08/23 07:31:01;;;;;;;;;;;;;;;;;;5010720;28;19919;-18
2023/08/23 07:33:28;;;;;;;;;;;;;;;;;;5011859;28;20344;-17
2023/08/23 07:35:54;;;;;;;;;;;;;;;;;;5011803;28;19916;-20
2023/08/23 07:38:20;;;;;;;;;;;;;;;;;;5011657;28;20233;-17
2023/08/23 07:40:46;;;;;;;;;;;;;;;;;;5012107;28;19916;-19
2023/08/23 07:43:12;;;;;;;;;;;;;;;;;;5015266;28;20019;-19
2023/08/23 07:45:38;;;;;;;;;;;;;;;;;;5015296;28;20313;-20
2023/08/23 07:48:04;;;;;;;;;;;;;;;;;;5015686;28;19910;-18
2023/08/23 07:50:30;;;;;;;;;;;;;;;;;;5014097;28;20332;-21
2023/08/23 07:52:56;;;;;;;;;;;;;;;;;;5014891;28;20255;-20
2023/08/23 07:55:23;;;;;;;;;;;;;;;;;;5015227;28;19921;-22
2023/08/23 07:57:49;;;;;;;;;;;;;;;;;;5015149;28;20340;-20
2023/08/23 08:00:15;;;;;;;;;;;;;;;;;;5014763;28;19916;-19
2023/08/23 08:02:41;;;;;;;;;;;;;;;;;;5014784;28;20306;-20
2023/08/23 08:05:07;;;;;;;;;;;;;;;;;;5014704;28;19960;-20
2023/08/23 08:07:33;;;;;;;;;;;;;;;;;;5013698;28;19926;-21
2023/08/23 08:09:59;;;;;;;;;;;;;;;;;;5014809;28;19918;-19
2023/08/23 08:12:25;;;;;;;;;;;;;;;;;;5013607;28;19910;-17
2023/08/23 08:14:51;;;;;;;;;;;;;;;;;;5015219;28;20016;-25
2023/08/23 08:17:17;;;;;;;;;;;;;;;;;;5015075;28;20219;-18
2023/08/23 08:19:43;;;;;;;;;;;;;;;;;;5014471;28;20008;-17
2023/08/23 08:22:09;;;;;;;;;;;;;;;;;;5014404;28;19962;-18
2023/08/23 08:24:35;;;;;;;;;;;;;;;;;;5014249;28;19932;-20
2023/08/23 08:27:02;;;;;;;;;;;;;;;;;;5014354;28;19929;-21
2023/08/23 08:29:28;;;;;;;;;;;;;;;;;;5014599;28;20251;-20
2023/08/23 08:31:54;;;;;;;;;;;;;;;;;;5014589;28;19910;-19
2023/08/23 08:34:20;;;;;;;;;;;;;;;;;;5013247;28;20021;-18
2023/08/23 08:36:46;;;;;;;;;;;;;;;;;;5014288;28;19933;-20
2023/08/23 08:39:12;;;;;;;;;;;;;;;;;;5014502;28;19916;-20
2023/08/23 08:41:38;;;;;;;;;;;;;;;;;;5014284;28;20383;-21
2023/08/23 08:44:04;;;;;;;;;;;;;;;;;;5013855;28;19924;-19
2023/08/23 08:46:30;;;;;;;;;;;;;;;;;;5013518;28;19920;-18
2023/08/23 08:48:55;;;;;;;;;;;;;;;;;;5013725;28;20226;-20
2023/08/23 08:51:21;;;;;;;;;;;;;;;;;;5013682;28;19910;-20
2023/08/23 08:53:48;;;;;;;;;;;;;;;;;;5012848;28;19910;-19
2023/08/23 08:56:14;;;;;;;;;;;;;;;;;;5012575;28;19910;-20
2023/08/23 08:58:40;;;;;;;;;;;;;;;;;;5013606;28;20252;-19
2023/08/23 09:01:06;;;;;;;;;;;;;;;;;;5013458;28;19989;-16
2023/08/23 09:03:32;;;;;;;;;;;;;;;;;;5013701;28;19910;-17
2023/08/23 09:05:58;;;;;;;;;;;;;;;;;;5013417;28;19913;-20
2023/08/23 09:08:24;;;;;;;;;;;;;;;;;;5012345;28;19982;-19
2023/08/23 09:10:50;;;;;;;;;;;;;;;;;;5013367;28;19993;-19
2023/08/23 09:13:16;;;;;;;;;;;;;;;;;;5013274;28;19940;-21
2023/08/23 09:15:42;;;;;;;;;;;;;;;;;;5013552;28;19929;-18
2023/08/23 09:18:08;;;;;;;;;;;;;;;;;;5013217;28;19936;-19
2023/08/23 09:20:34;;;;;;;;;;;;;;;;;;5012318;28;20305;-19
2023/08/23 09:23:00;;;;;;;;;;;;;;;;;;5013990;28;20076;-20
2023/08/23 09:25:26;;;;;;;;;;;;;;;;;;5012469;28;20375;-19
2023/08/23 09:27:52;;;;;;;;;;;;;;;;;;5013546;28;20317;-19
2023/08/23 09:30:18;;;;;;;;;;;;;;;;;;5013387;28;19916;-19
2023/08/23 09:32:44;;;;;;;;;;;;;;;;;;5013257;28;19988;-19
2023/08/23 09:35:10;;;;;;;;;;;;;;;;;;5013360;28;20263;-18
2023/08/23 09:37:36;;;;;;;;;;;;;;;;;;5013170;28;19996;-19
2023/08/23 09:40:02;;;;;;;;;;;;;;;;;;5013210;28;19955;-19
2023/08/23 09:42:28;;;;;;;;;;;;;;;;;;5012980;28;19909;-19
2023/08/23 09:44:54;;;;;;;;;;;;;;;;;;5013089;28;19924;-19
2023/08/23 09:47:20;;;;;;;;;;;;;;;;;;5013466;28;20000;-22
2023/08/23 09:49:46;;;;;;;;;;;;;;;;;;5013303;28;19909;-19
2023/08/23 09:52:12;;;;;;;;;;;;;;;;;;5012162;28;19917;-21
2023/08/23 09:54:38;;;;;;;;;;;;;;;;;;5012109;28;19910;-19
2023/08/23 09:57:04;;;;;;;;;;;;;;;;;;5012999;28;20322;-19
2023/08/23 09:59:30;;;;;;;;;;;;;;;;;;5013266;28;19910;-21
2023/08/23 10:01:56;;;;;;;;;;;;;;;;;;5013274;28;19916;-19
2023/08/23 10:04:22;;;;;;;;;;;;;;;;;;5012011;28;20325;-20
2023/08/23 10:06:48;;;;;;;;;;;;;;;;;;5013135;28;20008;-19
2023/08/23 10:09:14;;;;;;;;;;;;;;;;;;5012893;28;20336;-18
2023/08/23 10:11:40;;;;;;;;;;;;;;;;;;5013076;28;19958;-20
2023/08/23 10:14:06;;;;;;;;;;;;;;;;;;5012882;28;20259;-19
2023/08/23 10:16:32;;;;;;;;;;;;;;;;;;5012691;28;19917;-19
2023/08/23 10:18:58;;;;;;;;;;;;;;;;;;5012542;28;19909;-20
2023/08/23 10:21:24;;;;;;;;;;;;;;;;;;5012603;28;20263;-21
2023/08/23 10:23:50;;;;;;;;;;;;;;;;;;5012462;28;19971;-20
2023/08/23 10:26:16;;;;;;;;;;;;;;;;;;5012671;28;19921;-17
2023/08/23 10:28:42;;;;;;;;;;;;;;;;;;5012857;28;19910;-21
2023/08/23 10:31:08;;;;;;;;;;;;;;;;;;5012724;28;19963;-19
2023/08/23 10:33:34;;;;;;;;;;;;;;;;;;5012696;28;20343;-21
2023/08/23 10:36:00;;;;;;;;;;;;;;;;;;5012403;28;20217;-20
2023/08/23 10:38:26;;;;;;;;;;;;;;;;;;5011254;28;19935;-19
2023/08/23 10:40:54;;;;;;;;;;;;;;;;;;5012585;28;20232;-18
2023/08/23 10:43:20;;;;;;;;;;;;;;;;;;5012450;28;20277;-17
2023/08/23 10:45:45;;;;;;;;;;;;;;;;;;5012775;28;19913;-20
2023/08/23 10:48:11;;;;;;;;;;;;;;;;;;5012118;28;20020;-19
2023/08/23 10:50:37;;;;;;;;;;;;;;;;;;5012141;28;19984;-20
2023/08/23 10:53:04;;;;;;;;;;;;;;;;;;5011858;28;19917;-19
2023/08/23 10:55:30;;;;;;;;;;;;;;;;;;5011773;28;19910;-19
2023/08/23 10:57:56;;;;;;;;;;;;;;;;;;5010672;28;19967;-19
2023/08/23 11:00:22;;;;;;;;;;;;;;;;;;5010582;28;19941;-19
2023/08/23 11:02:48;;;;;;;;;;;;;;;;;;5010372;28;19953;-19
2023/08/23 11:05:14;;;;;;;;;;;;;;;;;;5011453;28;19982;-18
2023/08/23 11:07:40;;;;;;;;;;;;;;;;;;5011094;28;19916;-19
2023/08/23 11:10:06;;;;;;;;;;;;;;;;;;5010452;28;20300;-17
2023/08/23 11:12:32;;;;;;;;;;;;;;;;;;5011382;28;20001;-19
2023/08/23 11:14:58;;;;;;;;;;;;;;;;;;5011337;28;19989;-21
2023/08/23 11:17:24;;;;;;;;;;;;;;;;;;5011489;28;19913;-20
2023/08/23 11:19:50;;;;;;;;;;;;;;;;;;5011522;28;20260;-19
2023/08/23 11:22:15;;;;;;;;;;;;;;;;;;5011739;28;19916;-17
2023/08/23 11:24:41;;;;;;;;;;;;;;;;;;5011675;28;20502;-19
2023/08/23 11:27:09;;;;;;;;;;;;;;;;;;5011084;28;20416;-19
2023/08/23 11:29:35;;;;;;;;;;;;;;;;;;5011956;28;19909;-19
2023/08/23 11:32:01;;;;;;;;;;;;;;;;;;5012057;28;19933;-17
2023/08/23 11:34:27;;;;;;;;;;;;;;;;;;5012090;28;20225;-20
2023/08/23 11:36:53;;;;;;;;;;;;;;;;;;5012073;28;19945;-18
2023/08/23 11:39:19;;;;;;;;;;;;;;;;;;5011667;28;19939;-19
2023/08/23 11:41:45;;;;;;;;;;;;;;;;;;5011875;28;19910;-19
2023/08/23 11:44:11;;;;;;;;;;;;;;;;;;5011928;28;20248;-21
2023/08/23 11:46:40;;;;;;;;;;;;;;;;;;5011699;28;19953;-20
2023/08/23 11:49:06;;;;;;;;;;;;;;;;;;5011425;28;19917;-19
2023/08/23 11:51:32;;;;;;;;;;;;;;;;;;5011724;28;19910;-19
2023/08/23 11:53:59;;;;;;;;;;;;;;;;;;5011332;28;20359;-21
2023/08/23 11:56:25;;;;;;;;;;;;;;;;;;5011244;28;19909;-17
2023/08/23 11:58:50;;;;;;;;;;;;;;;;;;5011468;28;19910;-19
2023/08/23 12:01:16;;;;;;;;;;;;;;;;;;5011423;28;19922;-21
2023/08/23 12:03:42;;;;;;;;;;;;;;;;;;5011766;28;20359;-19
2023/08/23 12:06:08;;;;;;;;;;;;;;;;;;5011259;28;20340;-20
2023/08/23 12:08:34;;;;;;;;;;;;;;;;;;5011358;28;20247;-19
2023/08/23 12:11:00;;;;;;;;;;;;;;;;;;5011275;28;19966;-20
2023/08/23 12:13:26;;;;;;;;;;;;;;;;;;5011450;28;19917;-19
2023/08/23 12:15:52;;;;;;;;;;;;;;;;;;5011122;28;19910;-19
2023/08/23 12:18:18;;;;;;;;;;;;;;;;;;5010994;28;19909;-19
2023/08/23 12:20:44;;;;;;;;;;;;;;;;;;5011095;28;20054;-19
2023/08/23 12:23:10;;;;;;;;;;;;;;;;;;5010868;28;19986;-22
2023/08/23 12:25:36;;;;;;;;;;;;;;;;;;5010806;28;20016;-20
2023/08/23 12:28:02;;;;;;;;;;;;;;;;;;5011653;28;20010;-19
2023/08/23 12:30:28;;;;;;;;;;;;;;;;;;5014837;28;20324;-19
2023/08/23 12:32:54;;;;;;;;;;;;;;;;;;5014462;28;19920;-18
2023/08/23 12:35:20;;;;;;;;;;;;;;;;;;5014656;28;19910;-18
2023/08/23 12:37:46;;;;;;;;;;;;;;;;;;5014558;28;20247;-20
2023/08/23 12:40:12;;;;;;;;;;;;;;;;;;5014644;28;20000;-21
2023/08/23 12:42:39;;;;;;;;;;;;;;;;;;5014346;28;19909;-19
2023/08/23 12:45:05;;;;;;;;;;;;;;;;;;5014520;28;19991;-20
2023/08/23 12:47:31;;;;;;;;;;;;;;;;;;5014200;28;20340;-20
2023/08/23 12:49:57;;;;;;;;;;;;;;;;;;5014397;28;19910;-19
2023/08/23 12:52:23;;;;;;;;;;;;;;;;;;5014089;28;19996;-19
2023/08/23 12:54:49;;;;;;;;;;;;;;;;;;5013977;28;20342;-20
2023/08/23 12:57:15;;;;;;;;;;;;;;;;;;5013989;28;20316;-20
2023/08/23 12:59:41;;;;;;;;;;;;;;;;;;5014235;28;19914;-19
2023/08/23 13:02:07;;;;;;;;;;;;;;;;;;5014248;28;19913;-20
2023/08/23 13:04:33;;;;;;;;;;;;;;;;;;5013902;28;20333;-19
2023/08/23 13:06:59;;;;;;;;;;;;;;;;;;5014205;28;19910;-17
2023/08/23 13:09:25;;;;;;;;;;;;;;;;;;5014288;28;19910;-17
2023/08/23 13:11:51;;;;;;;;;;;;;;;;;;5013664;28;20389;-19
2023/08/23 13:14:16;;;;;;;;;;;;;;;;;;5013983;28;19971;-17
2023/08/23 13:16:42;;;;;;;;;;;;;;;;;;5013689;28;19921;-19
2023/08/23 13:19:09;;;;;;;;;;;;;;;;;;5013399;28;20029;-19
2023/08/23 13:21:35;;;;;;;;;;;;;;;;;;5013814;28;19910;-19
2023/08/23 13:24:01;;;;;;;;;;;;;;;;;;5013120;28;19921;-19
2023/08/23 13:26:27;;;;;;;;;;;;;;;;;;5013861;28;19913;-22
2023/08/23 13:28:53;;;;;;;;;;;;;;;;;;5013680;28;19910;-19
2023/08/23 13:31:19;;;;;;;;;;;;;;;;;;5013696;28;19909;-19
2023/08/23 13:33:46;;;;;;;;;;;;;;;;;;5013664;28;19916;-22
2023/08/23 13:36:13;;;;;;;;;;;;;;;;;;5013750;28;20303;-18
2023/08/23 13:38:39;;;;;;;;;;;;;;;;;;5013296;28;19913;-18
2023/08/23 13:41:05;;;;;;;;;;;;;;;;;;5012525;28;19929;-17
2023/08/23 13:43:32;;;;;;;;;;;;;;;;;;5013222;28;20347;-19
2023/08/23 13:45:58;;;;;;;;;;;;;;;;;;5013267;28;19918;-19
2023/08/23 13:48:24;;;;;;;;;;;;;;;;;;5013375;28;19920;-18
2023/08/23 13:50:50;;;;;;;;;;;;;;;;;;5013641;28;19920;-19
2023/08/23 13:53:16;;;;;;;;;;;;;;;;;;5013454;28;19910;-19
2023/08/23 13:55:42;;;;;;;;;;;;;;;;;;5014592;28;19996;-18
2023/08/23 13:58:08;;;;;;;;;;;;;;;;;;5013484;28;19948;-18
2023/08/23 14:00:34;;;;;;;;;;;;;;;;;;5013253;28;20377;-19
2023/08/23 14:03:00;;;;;;;;;;;;;;;;;;5013225;28;19909;-19
2023/08/23 14:05:27;;;;;;;;;;;;;;;;;;5012945;28;20007;-17
2023/08/23 14:07:53;;;;;;;;;;;;;;;;;;5013303;28;19917;-17
2023/08/23 14:10:18;;;;;;;;;;;;;;;;;;5013666;28;20019;-18
2023/08/23 14:12:44;;;;;;;;;;;;;;;;;;5013391;28;19970;-19
2023/08/23 14:15:10;;;;;;;;;;;;;;;;;;5012803;28;19933;-19
2023/08/23 14:17:36;;;;;;;;;;;;;;;;;;5012779;28;20017;-18
2023/08/23 14:20:06;;;;;;;;;;;;;;;;;;5013149;28;19921;-17
2023/08/23 14:22:32;;;;;;;;;;;;;;;;;;5013199;28;19932;-18
2023/08/23 14:24:58;;;;;;;;;;;;;;;;;;5012583;28;19921;-19
2023/08/23 14:27:24;;;;;;;;;;;;;;;;;;5013246;28;20239;-19
2023/08/23 14:29:50;;;;;;;;;;;;;;;;;;5012922;28;20000;-20
2023/08/23 14:32:18;;;;;;;;;;;;;;;;;;5012495;28;20385;-20
2023/08/23 14:34:44;;;;;;;;;;;;;;;;;;5012515;28;19932;-17
2023/08/23 14:37:09;;;;;;;;;;;;;;;;;;5012613;28;19909;-19
2023/08/23 14:39:35;;;;;;;;;;;;;;;;;;5012659;28;19910;-19
2023/08/23 14:42:01;;;;;;;;;;;;;;;;;;5012432;28;19924;-19
2023/08/23 14:44:29;;;;;;;;;;;;;;;;;;5012542;28;19996;-19
2023/08/23 14:46:55;;;;;;;;;;;;;;;;;;5012485;28;20229;-20
2023/08/23 14:49:20;;;;;;;;;;;;;;;;;;5012556;28;19917;-17
2023/08/23 14:51:46;;;;;;;;;;;;;;;;;;5011580;28;19979;-16
2023/08/23 14:54:12;;;;;;;;;;;;;;;;;;5012631;28;19909;-17
2023/08/23 14:56:38;;;;;;;;;;;;;;;;;;5012480;28;19986;-18
2023/08/23 14:59:05;;;;;;;;;;;;;;;;;;5012537;28;19921;-18
2023/08/23 15:01:31;;;;;;;;;;;;;;;;;;5012524;28;19910;-18
2023/08/23 15:03:57;;;;;;;;;;;;;;;;;;5012155;28;20389;-19
2023/08/23 15:06:23;;;;;;;;;;;;;;;;;;5012091;28;19914;-20
2023/08/23 15:08:49;;;;;;;;;;;;;;;;;;5012058;28;19913;-19
2023/08/23 15:11:15;;;;;;;;;;;;;;;;;;5011881;28;19970;-19
2023/08/23 15:13:44;;;;;;;;;;;;;;;;;;5010598;28;19990;-20
2023/08/23 15:16:10;;;;;;;;;;;;;;;;;;5011572;28;19910;-18
2023/08/23 15:18:36;;;;;;;;;;;;;;;;;;5011800;28;19975;-18
2023/08/23 15:21:02;;;;;;;;;;;;;;;;;;5011754;28;19914;-20
2023/08/23 15:23:28;;;;;;;;;;;;;;;;;;5011454;28;19979;-19
2023/08/23 15:25:54;;;;;;;;;;;;;;;;;;5011160;28;19921;-19
2023/08/23 15:28:21;;;;;;;;;;;;;;;;;;5011346;28;19954;-19
2023/08/23 15:30:47;;;;;;;;;;;;;;;;;;5011255;28;20333;-19
2023/08/23 15:33:13;;;;;;;;;;;;;;;;;;5011348;28;19924;-19
2023/08/23 15:35:39;;;;;;;;;;;;;;;;;;5011373;28;20009;-19
2023/08/23 15:38:05;;;;;;;;;;;;;;;;;;5011601;28;19970;-18
2023/08/23 15:40:31;;;;;;;;;;;;;;;;;;5012164;28;19952;-16
2023/08/23 15:42:57;;;;;;;;;;;;;;;;;;5011773;28;20001;-17
2023/08/23 15:45:23;;;;;;;;;;;;;;;;;;5011958;28;20341;-20
2023/08/23 15:47:49;;;;;;;;;;;;;;;;;;5012015;28;19914;-19
2023/08/23 15:50:16;;;;;;;;;;;;;;;;;;5012164;28;19921;-18
2023/08/23 15:52:42;;;;;;;;;;;;;;;;;;5011596;28;19909;-18
2023/08/23 15:55:08;;;;;;;;;;;;;;;;;;5011652;28;19996;-20
2023/08/23 15:57:34;;;;;;;;;;;;;;;;;;5011642;28;20319;-18
2023/08/23 16:00:00;;;;;;;;;;;;;;;;;;5011659;28;19941;-18
2023/08/23 16:02:26;;;;;;;;;;;;;;;;;;5012196;28;20247;-19
2023/08/23 16:04:52;;;;;;;;;;;;;;;;;;5014844;28;20346;-20
2023/08/23 16:07:18;;;;;;;;;;;;;;;;;;5015331;28;19910;-17
2023/08/23 16:09:44;;;;;;;;;;;;;;;;;;5015251;28;20034;-18
2023/08/23 16:12:10;;;;;;;;;;;;;;;;;;5014828;28;20365;-18
2023/08/23 16:14:36;;;;;;;;;;;;;;;;;;5014756;28;19909;-16
2023/08/23 16:17:02;;;;;;;;;;;;;;;;;;5015248;28;19910;-19
2023/08/23 16:19:28;;;;;;;;;;;;;;;;;;5014906;28;19986;-18
2023/08/23 16:21:54;;;;;;;;;;;;;;;;;;5014473;28;20310;-19
2023/08/23 16:24:21;;;;;;;;;;;;;;;;;;5014420;28;19928;-18
2023/08/23 16:26:47;;;;;;;;;;;;;;;;;;5014824;28;19914;-20
2023/08/23 16:29:13;;;;;;;;;;;;;;;;;;5014577;28;20248;-19
2023/08/23 16:31:39;;;;;;;;;;;;;;;;;;5014425;28;19917;-19
2023/08/23 16:34:05;;;;;;;;;;;;;;;;;;5014585;28;19966;-18
2023/08/23 16:36:31;;;;;;;;;;;;;;;;;;5014812;28;19996;-19